LOT6369 EPWA-LCPH
Flight info
| Callsign | LOT6369 |
|---|---|
| Flight time | N/A |
| Altitude | 37000 |
| Route | XIMBA DCT OMAVA DCT ROBTU DCT KENIN DCT KARIL DCT RONBU DCT RIXEN UG1 IST UT35 AYT UA16 TOMBI M855 DASNI |
| Aircraft | B38M/M-SDE1FGHILORVWXY/HB1 |
Departure
| Time | 2026-04-30 13:13 |
|---|---|
| Airport | Warsaw Chopin Airport (EPWA) |
Arrival
| Time | N/A |
|---|---|
| Airport | Paphos International Airport (LCPH) |
| Time | Latitude | Longitude | Altitude | Speed | Heading |
|---|---|---|---|---|---|
| 2026-04-30 12:59 | 52.16880 | 20.97243 | 341 ft | 0 kts | 75° |
| 2026-04-30 13:03 | 52.16877 | 20.97225 | 336 ft | 2 kts | 74° |
| 2026-04-30 13:03 | 52.16872 | 20.97199 | 336 ft | 2 kts | 74° |
| 2026-04-30 13:03 | 52.16868 | 20.97173 | 336 ft | 2 kts | 74° |
| 2026-04-30 13:03 | 52.16863 | 20.97147 | 336 ft | 2 kts | 77° |
| 2026-04-30 13:04 | 52.16861 | 20.97120 | 339 ft | 2 kts | 92° |
| 2026-04-30 13:04 | 52.16866 | 20.97096 | 338 ft | 2 kts | 141° |
| 2026-04-30 13:04 | 52.16880 | 20.97082 | 341 ft | 2 kts | 154° |
| 2026-04-30 13:04 | 52.16883 | 20.97080 | 341 ft | 0 kts | 155° |
| 2026-04-30 13:08 | 52.16883 | 20.97081 | 341 ft | 1 kts | 155° |
| 2026-04-30 13:08 | 52.16871 | 20.97090 | 338 ft | 3 kts | 152° |
| 2026-04-30 13:08 | 52.16846 | 20.97112 | 337 ft | 5 kts | 152° |
| 2026-04-30 13:08 | 52.16807 | 20.97146 | 341 ft | 7 kts | 152° |
| 2026-04-30 13:09 | 52.16755 | 20.97192 | 339 ft | 10 kts | 152° |
| 2026-04-30 13:09 | 52.16690 | 20.97248 | 338 ft | 12 kts | 152° |
| 2026-04-30 13:09 | 52.16620 | 20.97309 | 340 ft | 10 kts | 152° |
| 2026-04-30 13:09 | 52.16571 | 20.97382 | 341 ft | 10 kts | 115° |
| 2026-04-30 13:10 | 52.16538 | 20.97499 | 337 ft | 12 kts | 114° |
| 2026-04-30 13:10 | 52.16500 | 20.97636 | 337 ft | 14 kts | 114° |
| 2026-04-30 13:10 | 52.16466 | 20.97755 | 340 ft | 10 kts | 115° |
| 2026-04-30 13:10 | 52.16422 | 20.97809 | 339 ft | 9 kts | 192° |
| 2026-04-30 13:11 | 52.16360 | 20.97763 | 337 ft | 11 kts | 205° |
| 2026-04-30 13:11 | 52.16308 | 20.97722 | 340 ft | 5 kts | 208° |
| 2026-04-30 13:11 | 52.16304 | 20.97679 | 338 ft | 3 kts | 291° |
| 2026-04-30 13:11 | 52.16305 | 20.97675 | 339 ft | 0 kts | 295° |
| 2026-04-30 13:12 | 52.16311 | 20.97653 | 340 ft | 8 kts | 295° |
| 2026-04-30 13:12 | 52.16402 | 20.97330 | 337 ft | 69 kts | 295° |
| 2026-04-30 13:12 | 52.16714 | 20.96218 | 346 ft | 144 kts | 295° |
| 2026-04-30 13:13 | 52.17713 | 20.92595 | 1710 ft | 191 kts | 296° |
| 2026-04-30 13:13 | 52.18209 | 20.90567 | 2593 ft | 203 kts | 289° |
| 2026-04-30 13:13 | 52.17954 | 20.85418 | 3336 ft | 253 kts | 243° |
| 2026-04-30 13:14 | 52.16754 | 20.83216 | 3834 ft | 268 kts | 214° |
| 2026-04-30 13:14 | 52.15024 | 20.82103 | 4606 ft | 271 kts | 189° |
| 2026-04-30 13:14 | 52.11171 | 20.81447 | 5868 ft | 282 kts | 186° |
| 2026-04-30 13:15 | 52.09211 | 20.81099 | 6582 ft | 285 kts | 186° |
| 2026-04-30 13:15 | 52.05205 | 20.80567 | 7874 ft | 292 kts | 171° |
| 2026-04-30 13:15 | 52.03218 | 20.81285 | 8549 ft | 294 kts | 165° |
| 2026-04-30 13:16 | 52.01207 | 20.82022 | 9160 ft | 299 kts | 166° |
| 2026-04-30 13:16 | 51.99155 | 20.82736 | 9826 ft | 304 kts | 166° |
| 2026-04-30 13:16 | 51.97078 | 20.83441 | 10486 ft | 306 kts | 166° |
| 2026-04-30 13:17 | 51.92722 | 20.84880 | 11142 ft | 335 kts | 166° |
| 2026-04-30 13:17 | 51.90384 | 20.85643 | 11384 ft | 351 kts | 166° |
| 2026-04-30 13:17 | 51.85521 | 20.87226 | 12506 ft | 360 kts | 166° |
| 2026-04-30 13:18 | 51.83078 | 20.88021 | 13112 ft | 364 kts | 165° |
| 2026-04-30 13:18 | 51.78046 | 20.89655 | 14422 ft | 373 kts | 165° |
| 2026-04-30 13:18 | 51.75486 | 20.90484 | 15034 ft | 376 kts | 165° |
| 2026-04-30 13:19 | 51.72917 | 20.91317 | 15657 ft | 380 kts | 165° |
| 2026-04-30 13:19 | 51.70300 | 20.92163 | 16294 ft | 383 kts | 165° |
| 2026-04-30 13:19 | 51.67678 | 20.93011 | 16904 ft | 387 kts | 164° |
| 2026-04-30 13:19 | 51.65015 | 20.93870 | 17500 ft | 391 kts | 164° |
| 2026-04-30 13:20 | 51.62336 | 20.94733 | 18096 ft | 394 kts | 164° |
| 2026-04-30 13:20 | 51.59627 | 20.95606 | 18663 ft | 398 kts | 164° |
| 2026-04-30 13:20 | 51.56900 | 20.96482 | 19162 ft | 401 kts | 164° |
| 2026-04-30 13:20 | 51.54180 | 20.97354 | 19640 ft | 404 kts | 164° |
| 2026-04-30 13:21 | 51.51412 | 20.98242 | 20137 ft | 407 kts | 164° |
| 2026-04-30 13:21 | 51.48631 | 20.99132 | 20610 ft | 409 kts | 164° |
| 2026-04-30 13:21 | 51.45830 | 21.00029 | 21095 ft | 412 kts | 164° |
| 2026-04-30 13:22 | 51.40162 | 21.01838 | 22051 ft | 418 kts | 164° |
| 2026-04-30 13:22 | 51.37304 | 21.02749 | 22530 ft | 420 kts | 164° |
| 2026-04-30 13:22 | 51.31528 | 21.04587 | 23505 ft | 426 kts | 164° |
| 2026-04-30 13:23 | 51.28610 | 21.05513 | 23982 ft | 429 kts | 164° |
| 2026-04-30 13:23 | 51.22721 | 21.07379 | 24804 ft | 434 kts | 164° |
| 2026-04-30 13:24 | 51.16762 | 21.09262 | 25649 ft | 439 kts | 164° |
| 2026-04-30 13:24 | 51.10730 | 21.11163 | 26482 ft | 444 kts | 164° |
| 2026-04-30 13:25 | 51.04636 | 21.13078 | 27298 ft | 449 kts | 164° |
| 2026-04-30 13:25 | 50.98506 | 21.15000 | 28090 ft | 453 kts | 164° |
| 2026-04-30 13:26 | 50.89146 | 21.17925 | 29229 ft | 460 kts | 164° |
| 2026-04-30 13:26 | 50.82821 | 21.19894 | 29978 ft | 465 kts | 164° |
| 2026-04-30 13:27 | 50.76489 | 21.21860 | 30630 ft | 469 kts | 165° |
| 2026-04-30 13:28 | 50.66811 | 21.24855 | 31468 ft | 475 kts | 165° |
| 2026-04-30 13:28 | 50.60284 | 21.26868 | 32008 ft | 480 kts | 165° |
| 2026-04-30 13:28 | 50.57003 | 21.27877 | 32264 ft | 482 kts | 165° |
| 2026-04-30 13:29 | 50.50399 | 21.29905 | 32788 ft | 486 kts | 165° |
| 2026-04-30 13:29 | 50.43838 | 21.31914 | 33263 ft | 486 kts | 165° |
| 2026-04-30 13:30 | 50.33783 | 21.34983 | 33927 ft | 485 kts | 166° |
| 2026-04-30 13:31 | 50.27154 | 21.36998 | 34365 ft | 484 kts | 166° |
| 2026-04-30 13:31 | 50.17239 | 21.40002 | 34935 ft | 484 kts | 166° |
| 2026-04-30 13:32 | 50.10660 | 21.41988 | 35299 ft | 484 kts | 166° |
| 2026-04-30 13:32 | 50.04043 | 21.43980 | 35673 ft | 484 kts | 166° |
| 2026-04-30 13:33 | 49.97428 | 21.45966 | 36040 ft | 484 kts | 167° |
| 2026-04-30 13:33 | 49.90814 | 21.47947 | 36363 ft | 484 kts | 167° |
| 2026-04-30 13:34 | 49.87497 | 21.48936 | 36515 ft | 484 kts | 167° |
| 2026-04-30 13:34 | 49.77570 | 21.51895 | 36921 ft | 484 kts | 167° |
| 2026-04-30 13:35 | 49.74260 | 21.52877 | 37057 ft | 484 kts | 167° |
| 2026-04-30 13:35 | 49.67678 | 21.54828 | 37320 ft | 484 kts | 167° |
| 2026-04-30 13:36 | 49.61059 | 21.56785 | 37366 ft | 484 kts | 167° |
| 2026-04-30 13:36 | 49.51135 | 21.59708 | 37365 ft | 483 kts | 167° |
| 2026-04-30 13:37 | 49.41222 | 21.62616 | 37366 ft | 484 kts | 167° |
| 2026-04-30 13:38 | 49.32512 | 21.65162 | 37366 ft | 483 kts | 167° |
| 2026-04-30 13:39 | 49.19200 | 21.69035 | 37371 ft | 484 kts | 168° |
| 2026-04-30 13:40 | 49.09271 | 21.71910 | 37367 ft | 484 kts | 168° |
| 2026-04-30 13:40 | 49.02694 | 21.73808 | 37361 ft | 484 kts | 168° |
| 2026-04-30 13:41 | 48.96074 | 21.75713 | 37361 ft | 484 kts | 168° |
| 2026-04-30 13:41 | 48.89462 | 21.77610 | 37354 ft | 484 kts | 168° |
| 2026-04-30 13:42 | 48.82832 | 21.79508 | 37352 ft | 484 kts | 168° |
| 2026-04-30 13:42 | 48.72904 | 21.82340 | 37346 ft | 483 kts | 168° |
| 2026-04-30 13:43 | 48.66285 | 21.84222 | 37347 ft | 483 kts | 168° |
| 2026-04-30 13:43 | 48.59732 | 21.86080 | 37344 ft | 483 kts | 168° |
| 2026-04-30 13:44 | 48.53129 | 21.87947 | 37337 ft | 482 kts | 168° |
| 2026-04-30 13:44 | 48.46533 | 21.89809 | 37334 ft | 482 kts | 168° |
| 2026-04-30 13:45 | 48.36692 | 21.92859 | 37313 ft | 479 kts | 157° |
| 2026-04-30 13:46 | 48.30881 | 21.97664 | 37320 ft | 477 kts | 147° |
| 2026-04-30 13:46 | 48.25180 | 22.02801 | 37323 ft | 477 kts | 147° |
| 2026-04-30 13:47 | 48.19508 | 22.07973 | 37323 ft | 477 kts | 147° |
| 2026-04-30 13:47 | 48.13859 | 22.13117 | 37317 ft | 477 kts | 147° |
| 2026-04-30 13:48 | 48.08186 | 22.18270 | 37315 ft | 477 kts | 147° |
| 2026-04-30 13:48 | 48.02505 | 22.23416 | 37309 ft | 477 kts | 147° |
| 2026-04-30 13:49 | 47.96828 | 22.28547 | 37300 ft | 477 kts | 147° |
| 2026-04-30 13:49 | 47.91155 | 22.33659 | 37301 ft | 476 kts | 147° |
| 2026-04-30 13:50 | 47.85473 | 22.38768 | 37297 ft | 476 kts | 147° |
| 2026-04-30 13:50 | 47.77184 | 22.46858 | 37300 ft | 474 kts | 140° |
| 2026-04-30 13:51 | 47.72032 | 22.52916 | 37291 ft | 475 kts | 140° |
| 2026-04-30 13:51 | 47.66850 | 22.59016 | 37289 ft | 475 kts | 140° |
| 2026-04-30 13:52 | 47.61662 | 22.65111 | 37289 ft | 476 kts | 140° |
| 2026-04-30 13:52 | 47.56559 | 22.71089 | 37290 ft | 476 kts | 140° |
| 2026-04-30 13:53 | 47.51264 | 22.77277 | 37287 ft | 477 kts | 141° |
| 2026-04-30 13:53 | 47.46048 | 22.83355 | 37284 ft | 477 kts | 141° |
| 2026-04-30 13:54 | 47.40836 | 22.89414 | 37280 ft | 477 kts | 141° |
| 2026-04-30 13:54 | 47.35606 | 22.95478 | 37274 ft | 478 kts | 141° |
| 2026-04-30 13:55 | 47.30403 | 23.01494 | 37268 ft | 478 kts | 141° |
| 2026-04-30 13:55 | 47.25155 | 23.07548 | 37272 ft | 478 kts | 141° |
| 2026-04-30 13:56 | 47.19905 | 23.13587 | 37268 ft | 479 kts | 141° |
| 2026-04-30 13:56 | 47.14659 | 23.19607 | 37264 ft | 478 kts | 141° |
| 2026-04-30 13:57 | 47.09416 | 23.25609 | 37262 ft | 478 kts | 141° |
| 2026-04-30 13:57 | 47.04202 | 23.31560 | 37263 ft | 477 kts | 142° |
| 2026-04-30 13:58 | 46.96319 | 23.40531 | 37265 ft | 477 kts | 142° |
| 2026-04-30 13:59 | 46.91065 | 23.46491 | 37267 ft | 478 kts | 142° |
| 2026-04-30 13:59 | 46.85809 | 23.52439 | 37267 ft | 478 kts | 142° |
| 2026-04-30 14:00 | 46.80570 | 23.58351 | 37268 ft | 478 kts | 142° |
| 2026-04-30 14:00 | 46.72648 | 23.67264 | 37266 ft | 479 kts | 142° |
| 2026-04-30 14:01 | 46.67357 | 23.73197 | 37264 ft | 479 kts | 142° |
| 2026-04-30 14:01 | 46.62087 | 23.79093 | 37264 ft | 479 kts | 143° |
| 2026-04-30 14:02 | 46.56792 | 23.85001 | 37263 ft | 479 kts | 143° |
| 2026-04-30 14:02 | 46.51517 | 23.90872 | 37266 ft | 479 kts | 143° |
| 2026-04-30 14:03 | 46.46208 | 23.96765 | 37266 ft | 478 kts | 143° |
| 2026-04-30 14:03 | 46.40946 | 24.02592 | 37264 ft | 478 kts | 143° |
| 2026-04-30 14:04 | 46.35654 | 24.08439 | 37263 ft | 478 kts | 143° |
| 2026-04-30 14:04 | 46.30367 | 24.14265 | 37265 ft | 478 kts | 144° |
| 2026-04-30 14:05 | 46.25065 | 24.20092 | 37269 ft | 479 kts | 144° |
| 2026-04-30 14:05 | 46.19767 | 24.25901 | 37268 ft | 478 kts | 144° |
| 2026-04-30 14:06 | 46.11799 | 24.34610 | 37266 ft | 478 kts | 144° |
| 2026-04-30 14:07 | 46.03828 | 24.43290 | 37260 ft | 478 kts | 144° |
| 2026-04-30 14:08 | 45.95877 | 24.51916 | 37265 ft | 479 kts | 145° |
| 2026-04-30 14:08 | 45.87894 | 24.60546 | 37265 ft | 479 kts | 145° |
| 2026-04-30 14:09 | 45.82560 | 24.66293 | 37270 ft | 479 kts | 145° |
| 2026-04-30 14:10 | 45.74559 | 24.74890 | 37272 ft | 479 kts | 146° |
| 2026-04-30 14:10 | 45.69215 | 24.80612 | 37274 ft | 480 kts | 146° |
| 2026-04-30 14:11 | 45.63900 | 24.86292 | 37278 ft | 480 kts | 146° |
| 2026-04-30 14:11 | 45.58542 | 24.92002 | 37284 ft | 480 kts | 146° |
| 2026-04-30 14:12 | 45.53175 | 24.97708 | 37282 ft | 481 kts | 146° |
| 2026-04-30 14:12 | 45.47799 | 25.03411 | 37287 ft | 481 kts | 147° |
| 2026-04-30 14:13 | 45.42454 | 25.09066 | 37286 ft | 481 kts | 147° |
| 2026-04-30 14:13 | 45.37086 | 25.14732 | 37293 ft | 481 kts | 147° |
| 2026-04-30 14:14 | 45.31701 | 25.20402 | 37297 ft | 481 kts | 147° |
| 2026-04-30 14:14 | 45.26316 | 25.26059 | 37293 ft | 482 kts | 147° |
| 2026-04-30 14:15 | 45.20918 | 25.31715 | 37287 ft | 482 kts | 147° |
| 2026-04-30 14:15 | 45.15514 | 25.37364 | 37292 ft | 482 kts | 148° |
| 2026-04-30 14:16 | 45.10108 | 25.43001 | 37292 ft | 483 kts | 148° |
| 2026-04-30 14:16 | 45.04728 | 25.48599 | 37290 ft | 483 kts | 148° |
| 2026-04-30 14:17 | 44.99308 | 25.54224 | 37296 ft | 484 kts | 148° |
| 2026-04-30 14:17 | 44.93874 | 25.59850 | 37289 ft | 484 kts | 148° |
| 2026-04-30 14:18 | 44.88434 | 25.65469 | 37291 ft | 485 kts | 148° |
| 2026-04-30 14:18 | 44.80615 | 25.73522 | 37291 ft | 485 kts | 148° |
| 2026-04-30 14:19 | 44.72425 | 25.81926 | 37288 ft | 485 kts | 149° |
| 2026-04-30 14:20 | 44.66960 | 25.87518 | 37295 ft | 485 kts | 149° |
| 2026-04-30 14:20 | 44.58766 | 25.95877 | 37290 ft | 485 kts | 149° |
| 2026-04-30 14:21 | 44.53300 | 26.01437 | 37284 ft | 485 kts | 149° |
| 2026-04-30 14:22 | 44.45132 | 26.09721 | 37287 ft | 485 kts | 149° |
| 2026-04-30 14:22 | 44.36925 | 26.18017 | 37289 ft | 485 kts | 149° |
| 2026-04-30 14:23 | 44.26068 | 26.28949 | 37279 ft | 485 kts | 149° |
| 2026-04-30 14:24 | 44.17764 | 26.37277 | 37264 ft | 484 kts | 149° |
| 2026-04-30 14:25 | 44.06840 | 26.48189 | 37254 ft | 484 kts | 150° |
| 2026-04-30 14:26 | 43.99958 | 26.56361 | 37247 ft | 489 kts | 144° |
| 2026-04-30 14:27 | 43.92242 | 26.65618 | 37235 ft | 489 kts | 144° |
| 2026-04-30 14:27 | 43.87087 | 26.71767 | 37235 ft | 489 kts | 145° |
| 2026-04-30 14:28 | 43.79345 | 26.80976 | 37213 ft | 489 kts | 145° |
| 2026-04-30 14:28 | 43.74183 | 26.87097 | 37222 ft | 489 kts | 145° |
| 2026-04-30 14:29 | 43.63883 | 26.99268 | 37205 ft | 489 kts | 146° |
| 2026-04-30 14:31 | 43.50913 | 27.14515 | 37191 ft | 490 kts | 146° |
| 2026-04-30 14:31 | 43.43114 | 27.23641 | 37185 ft | 491 kts | 146° |
| 2026-04-30 14:32 | 43.35294 | 27.32757 | 37188 ft | 492 kts | 146° |
| 2026-04-30 14:33 | 43.30069 | 27.38831 | 37187 ft | 492 kts | 146° |
| 2026-04-30 14:33 | 43.22259 | 27.47884 | 37182 ft | 492 kts | 146° |
| 2026-04-30 14:34 | 43.17015 | 27.53944 | 37179 ft | 493 kts | 146° |
| 2026-04-30 14:34 | 43.11771 | 27.59992 | 37176 ft | 493 kts | 146° |
| 2026-04-30 14:35 | 43.03896 | 27.69045 | 37178 ft | 493 kts | 146° |
| 2026-04-30 14:36 | 42.98648 | 27.75062 | 37171 ft | 493 kts | 146° |
| 2026-04-30 14:36 | 42.93398 | 27.81066 | 37170 ft | 493 kts | 146° |
| 2026-04-30 14:37 | 42.88133 | 27.87075 | 37175 ft | 493 kts | 147° |
| 2026-04-30 14:37 | 42.82875 | 27.93060 | 37169 ft | 493 kts | 147° |
| 2026-04-30 14:38 | 42.77607 | 27.99045 | 37161 ft | 493 kts | 147° |
| 2026-04-30 14:38 | 42.72333 | 28.05021 | 37159 ft | 493 kts | 147° |
| 2026-04-30 14:39 | 42.67093 | 28.10946 | 37153 ft | 493 kts | 147° |
| 2026-04-30 14:39 | 42.61814 | 28.16902 | 37150 ft | 493 kts | 147° |
| 2026-04-30 14:40 | 42.53887 | 28.25819 | 37143 ft | 493 kts | 147° |
| 2026-04-30 14:40 | 42.48594 | 28.31757 | 37139 ft | 494 kts | 147° |
| 2026-04-30 14:41 | 42.43303 | 28.37678 | 37137 ft | 493 kts | 147° |
| 2026-04-30 14:41 | 42.38008 | 28.43590 | 37144 ft | 493 kts | 147° |
| 2026-04-30 14:42 | 42.32705 | 28.49499 | 37130 ft | 493 kts | 147° |
| 2026-04-30 14:42 | 42.27456 | 28.55336 | 37119 ft | 492 kts | 147° |
| 2026-04-30 14:43 | 42.22174 | 28.61197 | 37122 ft | 491 kts | 147° |
| 2026-04-30 14:43 | 42.16893 | 28.67045 | 37118 ft | 490 kts | 147° |
| 2026-04-30 14:44 | 42.11604 | 28.72848 | 37114 ft | 487 kts | 151° |
| 2026-04-30 14:44 | 42.08721 | 28.75081 | 37116 ft | 471 kts | 166° |
| 2026-04-30 14:44 | 42.05618 | 28.76203 | 37113 ft | 452 kts | 181° |
| 2026-04-30 14:45 | 41.99402 | 28.76828 | 37111 ft | 450 kts | 185° |
| 2026-04-30 14:45 | 41.93215 | 28.77178 | 37106 ft | 449 kts | 186° |
| 2026-04-30 14:46 | 41.86902 | 28.77447 | 37105 ft | 448 kts | 186° |
| 2026-04-30 14:46 | 41.80658 | 28.77691 | 37103 ft | 448 kts | 186° |
| 2026-04-30 14:47 | 41.74416 | 28.77936 | 37110 ft | 448 kts | 186° |
| 2026-04-30 14:47 | 41.68177 | 28.78180 | 37098 ft | 448 kts | 186° |
| 2026-04-30 14:48 | 41.61978 | 28.78422 | 37102 ft | 448 kts | 186° |
| 2026-04-30 14:48 | 41.55744 | 28.78665 | 37092 ft | 448 kts | 186° |
| 2026-04-30 14:49 | 41.49501 | 28.78908 | 37098 ft | 448 kts | 185° |
| 2026-04-30 14:49 | 41.43261 | 28.79151 | 37095 ft | 448 kts | 185° |
| 2026-04-30 14:50 | 41.33911 | 28.79514 | 37095 ft | 448 kts | 185° |
| 2026-04-30 14:51 | 41.24610 | 28.79875 | 37104 ft | 448 kts | 185° |
| 2026-04-30 14:52 | 41.15256 | 28.80268 | 37094 ft | 448 kts | 185° |
| 2026-04-30 14:52 | 41.05897 | 28.80661 | 37072 ft | 449 kts | 185° |
| 2026-04-30 14:53 | 40.96528 | 28.81269 | 37058 ft | 456 kts | 174° |
| 2026-04-30 14:54 | 40.84448 | 28.87307 | 37067 ft | 467 kts | 164° |
| 2026-04-30 14:55 | 40.75402 | 28.92105 | 37050 ft | 467 kts | 164° |
| 2026-04-30 14:56 | 40.63351 | 28.98481 | 37028 ft | 466 kts | 164° |
| 2026-04-30 14:57 | 40.54306 | 29.03250 | 37024 ft | 467 kts | 163° |
| 2026-04-30 14:58 | 40.42287 | 29.09566 | 37011 ft | 466 kts | 163° |
| 2026-04-30 14:58 | 40.33236 | 29.14307 | 37000 ft | 466 kts | 163° |
| 2026-04-30 15:00 | 40.18164 | 29.22170 | 36993 ft | 467 kts | 163° |
| 2026-04-30 15:01 | 40.06111 | 29.28432 | 36980 ft | 467 kts | 163° |
| 2026-04-30 15:01 | 39.97039 | 29.33129 | 36974 ft | 466 kts | 163° |
| 2026-04-30 15:02 | 39.91004 | 29.36245 | 36968 ft | 466 kts | 163° |
| 2026-04-30 15:03 | 39.75914 | 29.44014 | 36956 ft | 467 kts | 163° |
| 2026-04-30 15:04 | 39.60818 | 29.51748 | 36946 ft | 468 kts | 163° |
| 2026-04-30 15:06 | 39.45692 | 29.59462 | 36949 ft | 467 kts | 163° |
| 2026-04-30 15:07 | 39.33596 | 29.65605 | 36954 ft | 466 kts | 163° |
| 2026-04-30 15:08 | 39.21517 | 29.71716 | 36954 ft | 466 kts | 163° |
| 2026-04-30 15:09 | 39.06427 | 29.79318 | 36956 ft | 466 kts | 163° |
| 2026-04-30 15:10 | 38.94305 | 29.85401 | 36972 ft | 467 kts | 163° |
| 2026-04-30 15:11 | 38.76168 | 29.94459 | 36966 ft | 467 kts | 163° |
| 2026-04-30 15:13 | 38.62003 | 30.01499 | 36965 ft | 468 kts | 163° |
| 2026-04-30 15:14 | 38.40790 | 30.11989 | 36980 ft | 468 kts | 163° |
| 2026-04-30 15:17 | 38.13359 | 30.25076 | 36991 ft | 468 kts | 164° |
| 2026-04-30 15:19 | 37.88851 | 30.36255 | 36987 ft | 469 kts | 165° |